createdAt,value
2023-04-25T00:01:44.952Z,10.64
2023-04-25T00:04:50.686Z,10.63
2023-04-25T00:07:53.610Z,10.57
2023-04-25T00:10:56.611Z,10.61
2023-04-25T00:14:00.860Z,10.59
2023-04-25T00:17:03.893Z,10.58
2023-04-25T00:20:08.852Z,10.60
2023-04-25T00:23:11.744Z,10.60
2023-04-25T00:26:14.440Z,10.59
2023-04-25T00:29:17.583Z,10.65
2023-04-25T00:32:20.570Z,10.63
2023-04-25T00:35:23.515Z,10.62
2023-04-25T00:38:26.276Z,10.57
2023-04-25T00:41:31.221Z,10.55
2023-04-25T00:44:36.489Z,10.57
2023-04-25T00:47:39.778Z,10.58
2023-04-25T00:50:43.575Z,10.57
2023-04-25T00:53:47.258Z,10.53
2023-04-25T00:56:50.080Z,10.51
2023-04-25T00:59:54.117Z,10.54
2023-04-25T01:02:57.137Z,10.44
2023-04-25T01:06:00.323Z,10.52
2023-04-25T01:09:04.010Z,10.51
2023-04-25T01:12:07.202Z,10.47
2023-04-25T01:15:11.183Z,10.47
2023-04-25T01:18:14.301Z,10.49
2023-04-25T01:21:17.243Z,10.50
2023-04-25T01:24:21.710Z,10.48
2023-04-25T01:27:25.092Z,10.47
2023-04-25T01:30:30.276Z,10.42
2023-04-25T01:33:33.445Z,10.49
2023-04-25T01:36:36.795Z,10.52
2023-04-25T01:39:39.845Z,10.54
2023-04-25T01:42:44.637Z,10.50
2023-04-25T01:45:48.939Z,10.48
2023-04-25T01:48:52.461Z,10.48
2023-04-25T01:51:55.302Z,10.48
2023-04-25T01:55:00.665Z,10.46
2023-04-25T01:58:10.117Z,10.42
2023-04-25T02:01:15.217Z,10.41
2023-04-25T02:04:18.940Z,10.43
2023-04-25T02:07:22.389Z,10.33
2023-04-25T02:10:27.548Z,10.39
2023-04-25T02:13:30.876Z,10.34
2023-04-25T02:16:33.981Z,10.31
2023-04-25T02:19:37.100Z,10.18
2023-04-25T02:22:40.258Z,10.27
2023-04-25T02:25:43.202Z,10.24
2023-04-25T02:28:46.263Z,10.21
2023-04-25T02:31:49.661Z,10.14
2023-04-25T02:34:53.946Z,10.09
2023-04-25T02:37:56.963Z,10.14
2023-04-25T02:40:59.657Z,10.14
2023-04-25T02:44:02.706Z,10.18
2023-04-25T02:47:05.429Z,10.09
2023-04-25T02:50:08.714Z,10.06
2023-04-25T02:53:11.828Z,10.14
2023-04-25T02:56:15.472Z,10.09
2023-04-25T02:59:18.173Z,10.05
2023-04-25T03:02:21.574Z,10.02
2023-04-25T03:05:24.340Z,9.98
2023-04-25T03:08:30.579Z,9.95
2023-04-25T03:11:33.329Z,9.95
2023-04-25T03:14:37.196Z,9.83
2023-04-25T03:17:39.923Z,9.92
2023-04-25T03:20:43.932Z,9.85
2023-04-25T03:23:46.694Z,9.84
2023-04-25T03:26:49.664Z,9.87
2023-04-25T03:29:52.391Z,9.85
2023-04-25T03:32:56.443Z,9.75
2023-04-25T03:35:59.209Z,9.76
2023-04-25T03:39:03.663Z,9.71
2023-04-25T03:42:06.838Z,9.74
2023-04-25T03:45:10.030Z,9.68
2023-04-25T03:48:12.943Z,9.74
2023-04-25T03:51:15.943Z,9.73
2023-04-25T03:54:19.092Z,9.73
2023-04-25T03:57:22.815Z,9.71
2023-04-25T04:00:26.329Z,9.74
2023-04-25T04:03:29.801Z,9.73
2023-04-25T04:06:33.136Z,9.57
2023-04-25T04:09:37.718Z,9.66
2023-04-25T04:12:40.740Z,9.65
2023-04-25T04:15:43.899Z,9.63
2023-04-25T04:18:47.224Z,9.57
2023-04-25T04:21:50.367Z,9.63
2023-04-25T04:24:53.216Z,9.56
2023-04-25T04:27:56.574Z,9.68
2023-04-25T04:30:59.342Z,9.70
2023-04-25T04:34:02.809Z,9.69
2023-04-25T04:37:07.946Z,9.61
2023-04-25T04:40:12.334Z,9.68
2023-04-25T04:43:18.211Z,9.65
2023-04-25T04:46:22.751Z,9.71
2023-04-25T04:49:27.422Z,9.69
2023-04-25T04:52:31.385Z,9.78
2023-04-25T04:55:35.015Z,9.83
2023-04-25T04:58:38.539Z,9.87
2023-04-25T05:01:41.637Z,9.90
2023-04-25T05:04:44.902Z,9.95
2023-04-25T05:07:47.976Z,10.12
2023-04-25T05:10:53.416Z,10.20
2023-04-25T05:13:56.241Z,10.20
2023-04-25T05:17:00.742Z,10.24
2023-04-25T05:20:09.896Z,10.25
2023-04-25T05:23:14.007Z,10.30
2023-04-25T05:26:17.144Z,10.23
2023-04-25T05:29:20.164Z,10.29
2023-04-25T05:32:28.365Z,10.25
2023-04-25T05:35:32.291Z,10.22
2023-04-25T05:38:35.310Z,10.32
2023-04-25T05:41:40.891Z,10.37
2023-04-25T05:44:43.925Z,10.45
2023-04-25T05:47:47.418Z,10.47
2023-04-25T05:50:52.575Z,10.53
2023-04-25T05:53:55.818Z,10.69
2023-04-25T05:56:58.824Z,10.84
2023-04-25T06:00:02.259Z,11.00
2023-04-25T06:03:08.979Z,11.32
2023-04-25T06:06:13.177Z,11.70
2023-04-25T06:09:16.185Z,12.00
2023-04-25T06:12:19.317Z,12.18
2023-04-25T06:15:28.081Z,12.75
2023-04-25T06:18:31.852Z,13.03
2023-04-25T06:21:34.600Z,12.99
2023-04-25T06:24:37.641Z,13.03
2023-04-25T06:27:40.526Z,13.24
2023-04-25T06:30:44.151Z,13.93
2023-04-25T06:33:47.470Z,14.55
2023-04-25T06:36:50.790Z,15.57
2023-04-25T06:39:53.696Z,15.86
2023-04-25T06:42:56.832Z,15.56
2023-04-25T06:46:01.971Z,15.10
2023-04-25T06:49:05.912Z,14.26
2023-04-25T06:52:09.752Z,14.43
2023-04-25T06:55:12.863Z,14.54
2023-04-25T06:58:17.513Z,15.51
2023-04-25T07:01:23.897Z,15.30
2023-04-25T07:04:27.053Z,14.62
2023-04-25T07:07:31.608Z,14.44
2023-04-25T07:10:34.657Z,14.74
2023-04-25T07:13:38.344Z,14.18
2023-04-25T07:16:41.718Z,13.94
2023-04-25T07:19:44.962Z,12.97
2023-04-25T07:22:47.742Z,12.92
2023-04-25T07:25:50.954Z,12.65
2023-04-25T07:28:57.218Z,12.37
2023-04-25T07:32:01.535Z,12.61
2023-04-25T07:35:04.994Z,12.98
2023-04-25T07:38:08.940Z,13.61
2023-04-25T07:41:12.200Z,13.85
2023-04-25T07:44:15.816Z,13.36
2023-04-25T07:47:20.409Z,13.42
2023-04-25T07:50:23.602Z,13.55
2023-04-25T07:53:26.384Z,14.08
2023-04-25T07:56:38.458Z,15.48
2023-04-25T07:59:48.624Z,16.86
2023-04-25T08:02:52.334Z,16.89
2023-04-25T08:05:56.749Z,17.15
2023-04-25T08:09:00.785Z,19.50
2023-04-25T08:12:05.701Z,19.78
2023-04-25T08:15:09.701Z,20.84
2023-04-25T08:18:15.059Z,20.40
2023-04-25T08:21:20.493Z,21.65
2023-04-25T08:24:24.439Z,20.80
2023-04-25T08:27:27.229Z,20.81
2023-04-25T08:30:30.914Z,19.64
2023-04-25T08:33:34.245Z,20.16
2023-04-25T08:36:39.765Z,21.51
2023-04-25T08:39:43.627Z,19.02
2023-04-25T08:42:51.691Z,20.51
2023-04-25T08:45:55.688Z,20.06
2023-04-25T08:49:03.302Z,21.44
2023-04-25T08:52:07.463Z,21.22
2023-04-25T08:55:14.004Z,23.06
2023-04-25T08:58:17.251Z,22.26
2023-04-25T09:01:20.539Z,18.41
2023-04-25T09:04:24.113Z,17.61
2023-04-25T09:07:27.176Z,16.83
2023-04-25T09:13:35.000Z,16.76
2023-04-25T09:16:58.163Z,16.12
2023-04-25T09:20:09.170Z,16.47
2023-04-25T09:23:12.203Z,15.73
2023-04-25T09:26:18.049Z,15.64
2023-04-25T09:29:31.068Z,16.09
2023-04-25T09:32:34.686Z,16.41
2023-04-25T09:35:42.215Z,16.09
2023-04-25T09:38:46.964Z,15.83
2023-04-25T09:41:55.050Z,15.80
2023-04-25T09:44:59.028Z,16.40
2023-04-25T09:48:07.897Z,16.45
2023-04-25T09:51:17.158Z,15.63
2023-04-25T09:54:20.263Z,15.82
2023-04-25T09:57:26.967Z,15.75
2023-04-25T10:00:31.375Z,16.75
2023-04-25T10:03:43.088Z,16.90
2023-04-25T10:06:50.301Z,16.77
2023-04-25T10:10:04.330Z,16.98
2023-04-25T10:13:07.528Z,17.28
2023-04-25T10:16:10.542Z,16.36
2023-04-25T10:19:14.323Z,16.21
2023-04-25T10:22:39.220Z,16.60
2023-04-25T10:25:42.971Z,16.93
2023-04-25T10:29:00.651Z,16.98
2023-04-25T10:32:03.664Z,17.04
2023-04-25T10:35:17.906Z,17.17
2023-04-25T10:38:20.716Z,17.34
2023-04-25T10:41:24.096Z,17.05
2023-04-25T10:44:31.223Z,16.67
2023-04-25T10:47:38.268Z,17.07
2023-04-25T10:50:40.993Z,16.37
2023-04-25T10:53:48.388Z,16.37
2023-04-25T10:56:52.352Z,17.06
2023-04-25T10:59:55.747Z,16.79
2023-04-25T11:03:02.011Z,16.64
2023-04-25T11:06:07.883Z,16.81
2023-04-25T11:09:14.619Z,17.27
2023-04-25T11:12:18.644Z,17.29
2023-04-25T11:15:21.530Z,17.30
2023-04-25T11:18:28.048Z,17.48
2023-04-25T11:21:32.814Z,16.60
2023-04-25T11:24:37.462Z,16.78
2023-04-25T11:27:57.011Z,16.35
2023-04-25T11:31:00.117Z,16.69
2023-04-25T11:34:03.574Z,16.46
2023-04-25T11:37:07.462Z,16.44
2023-04-25T11:40:11.207Z,16.15
2023-04-25T11:43:14.374Z,16.78
2023-04-25T11:46:17.585Z,16.18
2023-04-25T11:49:20.717Z,15.37
2023-04-25T11:52:23.487Z,15.60
2023-04-25T11:55:26.883Z,16.11
2023-04-25T11:58:29.645Z,15.86
2023-04-25T12:01:35.722Z,16.22
2023-04-25T12:04:42.533Z,16.66
2023-04-25T12:08:14.366Z,16.78
2023-04-25T12:11:23.470Z,17.27
2023-04-25T12:14:32.426Z,16.94
2023-04-25T12:17:35.937Z,17.28
2023-04-25T12:20:38.693Z,17.74
2023-04-25T12:23:42.704Z,17.88
2023-04-25T12:26:48.898Z,17.60
2023-04-25T12:29:56.968Z,18.03
2023-04-25T12:32:59.669Z,18.42
2023-04-25T12:36:12.286Z,18.34
2023-04-25T12:39:18.803Z,17.60
2023-04-25T12:42:21.849Z,17.08
2023-04-25T12:45:25.151Z,16.55
2023-04-25T12:48:28.095Z,16.38
2023-04-25T12:51:30.944Z,16.41
2023-04-25T12:54:33.919Z,16.03
2023-04-25T12:57:36.596Z,15.97
2023-04-25T13:00:39.681Z,16.49
2023-04-25T13:03:42.539Z,16.37
2023-04-25T13:06:45.698Z,16.37
2023-04-25T13:09:48.327Z,16.12
2023-04-25T13:12:51.650Z,16.33
2023-04-25T13:15:54.410Z,16.71
2023-04-25T13:18:57.771Z,16.31
2023-04-25T13:22:00.691Z,16.60
2023-04-25T13:25:04.486Z,16.66
2023-04-25T13:28:07.236Z,16.94
2023-04-25T13:31:10.468Z,16.86
2023-04-25T13:34:13.837Z,16.74
2023-04-25T13:37:16.795Z,16.50
2023-04-25T13:40:19.513Z,16.27
2023-04-25T13:43:22.985Z,16.35
2023-04-25T13:46:44.901Z,16.25
2023-04-25T13:49:48.764Z,16.06
2023-04-25T13:52:52.067Z,15.69
2023-04-25T13:55:54.996Z,15.56
2023-04-25T13:58:58.294Z,15.26
2023-04-25T14:02:01.565Z,15.25
2023-04-25T14:05:05.839Z,15.81
2023-04-25T14:08:10.545Z,16.32
2023-04-25T14:11:13.643Z,16.60
2023-04-25T14:14:17.239Z,16.80
2023-04-25T14:17:21.035Z,17.00
2023-04-25T14:20:25.019Z,17.02
2023-04-25T14:23:27.936Z,17.11
2023-04-25T14:26:31.306Z,17.08
2023-04-25T14:29:34.618Z,16.40
2023-04-25T14:32:39.125Z,15.50
2023-04-25T14:35:42.459Z,15.17
2023-04-25T14:38:45.117Z,14.79
2023-04-25T14:41:48.255Z,14.54
2023-04-25T14:44:51.120Z,14.49
2023-04-25T14:47:54.203Z,14.59
2023-04-25T14:51:00.749Z,14.93
2023-04-25T14:54:03.884Z,15.02
2023-04-25T14:57:06.803Z,14.52
2023-04-25T15:00:10.697Z,13.95
2023-04-25T15:03:14.620Z,13.01
2023-04-25T15:06:17.755Z,12.61
2023-04-25T15:09:20.537Z,12.08
2023-04-25T15:12:23.899Z,11.89
2023-04-25T15:15:27.712Z,12.05
2023-04-25T15:18:30.721Z,12.43
2023-04-25T15:21:33.840Z,12.78
2023-04-25T15:24:36.981Z,12.93
2023-04-25T15:27:44.719Z,13.38
2023-04-25T15:30:48.066Z,13.85
2023-04-25T15:33:51.492Z,14.24
2023-04-25T15:36:54.670Z,14.53
2023-04-25T15:40:09.777Z,14.64
2023-04-25T15:43:16.225Z,14.67
2023-04-25T15:46:19.128Z,14.80
2023-04-25T15:49:22.949Z,14.65
2023-04-25T15:52:26.522Z,14.54
2023-04-25T15:55:29.549Z,14.43
2023-04-25T15:58:32.579Z,14.31
2023-04-25T16:01:35.695Z,14.19
2023-04-25T16:04:39.508Z,14.06
2023-04-25T16:07:44.278Z,14.01
2023-04-25T16:10:47.428Z,13.94
2023-04-25T16:13:50.396Z,13.87
2023-04-25T16:16:54.016Z,13.78
2023-04-25T16:19:57.318Z,13.62
2023-04-25T16:23:00.502Z,13.54
2023-04-25T16:26:03.429Z,13.40
2023-04-25T16:29:07.367Z,13.40
2023-04-25T16:32:11.578Z,13.29
2023-04-25T16:35:17.500Z,13.12
2023-04-25T16:38:20.424Z,13.04
2023-04-25T16:41:23.437Z,12.97
2023-04-25T16:44:26.380Z,12.85
2023-04-25T16:47:29.403Z,12.74
2023-04-25T16:50:33.311Z,12.77
2023-04-25T16:53:36.397Z,12.69
2023-04-25T16:56:39.118Z,12.62
2023-04-25T16:59:42.146Z,12.54
2023-04-25T17:02:45.232Z,12.55
2023-04-25T17:05:51.414Z,12.52
2023-04-25T17:08:54.629Z,12.36
2023-04-25T17:11:57.909Z,12.36
2023-04-25T17:15:01.337Z,12.31
2023-04-25T17:18:04.730Z,12.16
2023-04-25T17:21:08.570Z,12.02
2023-04-25T17:24:12.209Z,11.88
2023-04-25T17:27:14.970Z,11.81
2023-04-25T17:30:19.231Z,11.65
2023-04-25T17:33:26.858Z,11.39
2023-04-25T17:36:30.867Z,11.39
2023-04-25T17:39:33.598Z,11.25
2023-04-25T17:42:36.675Z,11.15
2023-04-25T17:45:39.505Z,10.98
2023-04-25T17:48:42.513Z,10.80
2023-04-25T17:51:45.460Z,10.70
2023-04-25T17:54:49.646Z,10.45
2023-04-25T17:57:52.649Z,10.20
2023-04-25T18:00:56.259Z,9.99
2023-04-25T18:03:59.384Z,9.83
2023-04-25T18:07:02.207Z,9.57
2023-04-25T18:10:06.168Z,9.46
2023-04-25T18:13:09.263Z,9.59
2023-04-25T18:16:12.296Z,9.99
2023-04-25T18:19:24.369Z,10.45
2023-04-25T18:22:28.813Z,10.62
2023-04-25T18:25:31.753Z,10.68
2023-04-25T18:28:34.843Z,10.60
2023-04-25T18:31:38.070Z,10.45
2023-04-25T18:34:46.181Z,10.55
2023-04-25T18:37:49.686Z,10.59
2023-04-25T18:41:01.391Z,10.63
2023-04-25T18:44:13.086Z,10.47
2023-04-25T18:47:16.876Z,10.29
2023-04-25T18:50:21.599Z,10.10
2023-04-25T18:53:24.613Z,10.07
2023-04-25T18:56:28.376Z,9.97
2023-04-25T18:59:31.642Z,9.92
2023-04-25T19:02:38.068Z,9.88
2023-04-25T19:05:41.144Z,9.91
2023-04-25T19:08:44.219Z,9.75
2023-04-25T19:11:47.224Z,9.72
2023-04-25T19:14:50.804Z,9.73
2023-04-25T19:17:53.822Z,9.68
2023-04-25T19:20:56.658Z,9.59
2023-04-25T19:24:01.472Z,9.48
2023-04-25T19:27:04.184Z,9.46
2023-04-25T19:30:08.757Z,9.42
2023-04-25T19:33:11.484Z,9.30
2023-04-25T19:36:14.570Z,9.31
2023-04-25T19:39:17.186Z,9.31
2023-04-25T19:42:20.248Z,9.25
2023-04-25T19:45:23.383Z,9.16
2023-04-25T19:48:26.586Z,9.03
2023-04-25T19:51:31.488Z,9.11
2023-04-25T19:54:35.964Z,8.96
2023-04-25T19:57:39.159Z,8.87
2023-04-25T20:00:42.335Z,8.79
2023-04-25T20:03:48.301Z,8.81
2023-04-25T20:06:51.185Z,8.83
2023-04-25T20:09:54.097Z,8.80
2023-04-25T20:12:56.823Z,8.85
2023-04-25T20:16:02.524Z,8.83
2023-04-25T20:19:05.755Z,8.82
2023-04-25T20:22:08.737Z,8.78
2023-04-25T20:25:12.316Z,8.76
2023-04-25T20:28:15.223Z,8.63
2023-04-25T20:31:17.970Z,8.59
2023-04-25T20:34:22.153Z,8.55
2023-04-25T20:37:24.818Z,8.50
2023-04-25T20:40:28.523Z,8.38
2023-04-25T20:43:31.453Z,8.28
2023-04-25T20:46:36.368Z,8.25
2023-04-25T20:49:39.305Z,8.18
2023-04-25T20:52:43.254Z,8.20
2023-04-25T20:55:46.523Z,8.20
2023-04-25T20:58:50.326Z,8.27
2023-04-25T21:01:54.517Z,8.28
2023-04-25T21:04:57.486Z,8.21
2023-04-25T21:08:00.123Z,8.25
2023-04-25T21:11:03.204Z,8.27
2023-04-25T21:14:05.904Z,8.28
2023-04-25T21:17:09.015Z,8.23
2023-04-25T21:20:12.010Z,8.25
2023-04-25T21:23:15.608Z,8.17
2023-04-25T21:26:18.346Z,8.10
2023-04-25T21:29:21.466Z,8.09
2023-04-25T21:32:24.353Z,8.03
2023-04-25T21:35:27.331Z,8.02
2023-04-25T21:38:30.070Z,7.94
2023-04-25T21:41:33.698Z,7.94
2023-04-25T21:44:36.921Z,7.82
2023-04-25T21:47:39.838Z,7.78
2023-04-25T21:50:42.611Z,7.73
2023-04-25T21:53:45.730Z,7.79
2023-04-25T21:56:48.601Z,7.62
2023-04-25T21:59:51.604Z,7.73
2023-04-25T22:02:57.841Z,7.72
2023-04-25T22:06:01.307Z,7.75
2023-04-25T22:09:04.819Z,7.77
2023-04-25T22:12:08.109Z,7.63
2023-04-25T22:15:12.923Z,7.69
2023-04-25T22:18:16.432Z,7.57
2023-04-25T22:21:19.151Z,7.64
2023-04-25T22:24:22.523Z,7.69
2023-04-25T22:27:25.245Z,7.62
2023-04-25T22:30:31.045Z,7.57
2023-04-25T22:33:34.243Z,7.56
2023-04-25T22:36:37.123Z,7.52
2023-04-25T22:39:40.323Z,7.58
2023-04-25T22:42:44.244Z,7.61
2023-04-25T22:45:47.244Z,7.56
2023-04-25T22:48:50.781Z,7.54
2023-04-25T22:51:57.577Z,7.58
2023-04-25T22:55:02.916Z,7.57
2023-04-25T22:58:08.656Z,7.49
2023-04-25T23:01:11.848Z,7.45
2023-04-25T23:04:15.048Z,7.56
2023-04-25T23:07:18.383Z,7.46
2023-04-25T23:10:21.113Z,7.51
2023-04-25T23:13:24.813Z,7.47
2023-04-25T23:16:27.637Z,7.37
2023-04-25T23:19:30.778Z,7.29
2023-04-25T23:22:33.760Z,7.24
2023-04-25T23:25:42.625Z,7.19
2023-04-25T23:28:46.911Z,7.24
2023-04-25T23:31:49.861Z,7.05
2023-04-25T23:34:52.533Z,7.06
2023-04-25T23:37:55.946Z,7.06
2023-04-25T23:40:59.218Z,6.91
2023-04-25T23:44:03.557Z,7.13
2023-04-25T23:47:06.235Z,7.11
2023-04-25T23:50:09.683Z,7.04
2023-04-25T23:53:12.505Z,7.04
2023-04-25T23:56:15.545Z,7.10
2023-04-25T23:59:18.249Z,6.96
